createdAt,value
2022-09-28T00:01:10.493Z,93.30
2022-09-28T00:03:37.772Z,93.40
2022-09-28T00:06:07.607Z,93.60
2022-09-28T00:08:36.144Z,93.90
2022-09-28T00:11:05.144Z,94.20
2022-09-28T00:13:33.213Z,94.50
2022-09-28T00:16:08.765Z,94.70
2022-09-28T00:18:36.225Z,95.00
2022-09-28T00:21:16.403Z,95.60
2022-09-28T00:24:02.987Z,95.50
2022-09-28T00:26:33.076Z,95.80
2022-09-28T00:29:02.290Z,96.00
2022-09-28T00:31:32.845Z,96.40
2022-09-28T00:34:01.804Z,96.80
2022-09-28T00:36:30.992Z,97.20
2022-09-28T00:38:59.035Z,97.50
2022-09-28T00:41:27.660Z,98.00
2022-09-28T00:44:37.653Z,98.20
2022-09-28T00:47:10.257Z,98.60
2022-09-28T00:49:52.707Z,98.80
2022-09-28T00:52:28.543Z,99.20
2022-09-28T00:54:59.610Z,99.40
2022-09-28T00:57:27.730Z,99.80
2022-09-28T00:59:55.347Z,99.90
2022-09-28T01:02:22.718Z,99.90
2022-09-28T01:04:51.408Z,99.90
2022-09-28T01:07:19.567Z,99.90
2022-09-28T01:09:47.720Z,99.90
2022-09-28T01:12:14.744Z,99.90
2022-09-28T01:14:43.461Z,99.90
2022-09-28T01:17:36.930Z,99.90
2022-09-28T01:20:39.959Z,99.90
2022-09-28T01:23:51.370Z,99.90
2022-09-28T01:26:33.828Z,99.90
2022-09-28T01:29:16.848Z,99.90
2022-09-28T01:31:50.158Z,99.90
2022-09-28T01:34:47.546Z,99.90
2022-09-28T01:37:19.072Z,99.90
2022-09-28T01:39:50.033Z,99.90
2022-09-28T01:42:27.989Z,99.90
2022-09-28T01:45:01.755Z,99.90
2022-09-28T01:47:36.259Z,99.90
2022-09-28T01:50:25.188Z,99.90
2022-09-28T01:52:59.513Z,99.90
2022-09-28T01:55:30.284Z,99.90
2022-09-28T01:58:03.433Z,99.90
2022-09-28T02:00:32.761Z,99.90
2022-09-28T02:03:04.868Z,99.90
2022-09-28T02:05:52.911Z,99.90
2022-09-28T02:08:27.031Z,99.90
2022-09-28T02:11:06.135Z,99.90
2022-09-28T02:13:37.451Z,99.90
2022-09-28T02:16:06.547Z,99.90
2022-09-28T02:18:34.237Z,99.90
2022-09-28T02:21:11.764Z,99.90
2022-09-28T02:23:43.360Z,99.90
2022-09-28T02:26:13.951Z,99.90
2022-09-28T02:28:41.253Z,99.90
2022-09-28T02:31:08.395Z,99.90
2022-09-28T02:33:38.784Z,99.90
2022-09-28T02:36:07.041Z,99.90
2022-09-28T02:38:38.657Z,99.90
2022-09-28T02:41:26.788Z,99.90
2022-09-28T02:44:17.275Z,99.90
2022-09-28T02:47:02.128Z,99.90
2022-09-28T02:49:48.449Z,99.90
2022-09-28T02:52:34.891Z,99.90
2022-09-28T02:55:31.541Z,99.90
2022-09-28T02:58:10.997Z,99.90
2022-09-28T03:01:04.407Z,99.90
2022-09-28T03:03:53.176Z,99.90
2022-09-28T03:06:30.772Z,99.90
2022-09-28T03:09:06.311Z,99.90
2022-09-28T03:11:41.645Z,99.90
2022-09-28T03:14:10.098Z,99.90
2022-09-28T03:16:47.553Z,99.90
2022-09-28T03:19:16.962Z,99.90
2022-09-28T03:21:44.094Z,99.90
2022-09-28T03:24:11.571Z,99.90
2022-09-28T03:26:39.152Z,99.90
2022-09-28T03:29:06.860Z,99.90
2022-09-28T03:31:35.243Z,99.90
2022-09-28T03:34:03.023Z,99.90
2022-09-28T03:36:31.598Z,99.90
2022-09-28T03:38:59.627Z,99.90
2022-09-28T03:41:28.053Z,99.90
2022-09-28T03:43:56.137Z,99.90
2022-09-28T03:49:09.180Z,99.90
2022-09-28T03:51:36.476Z,99.90
2022-09-28T03:54:03.794Z,99.90
2022-09-28T03:56:31.401Z,99.90
2022-09-28T03:58:58.393Z,99.90
2022-09-28T04:01:26.359Z,99.90
2022-09-28T04:03:57.839Z,99.90
2022-09-28T04:06:26.254Z,99.90
2022-09-28T04:08:53.671Z,99.90
2022-09-28T04:11:21.579Z,99.90
2022-09-28T04:13:50.153Z,99.90
2022-09-28T04:16:18.575Z,99.90
2022-09-28T04:18:55.056Z,99.90
2022-09-28T04:21:31.649Z,99.90
2022-09-28T04:24:08.123Z,99.90
2022-09-28T04:26:36.404Z,99.90
2022-09-28T04:29:18.886Z,99.90
2022-09-28T04:31:57.470Z,99.90
2022-09-28T04:34:37.211Z,99.90
2022-09-28T04:37:05.926Z,99.90
2022-09-28T04:39:33.053Z,99.90
2022-09-28T04:42:01.343Z,99.90
2022-09-28T04:44:29.047Z,99.90
2022-09-28T04:47:05.038Z,99.90
2022-09-28T04:49:32.385Z,99.90
2022-09-28T04:52:06.758Z,99.90
2022-09-28T04:54:35.270Z,99.90
2022-09-28T04:57:03.739Z,99.90
2022-09-28T04:59:30.870Z,99.90
2022-09-28T05:01:58.025Z,99.90
2022-09-28T05:04:43.525Z,99.90
2022-09-28T05:07:46.066Z,99.90
2022-09-28T05:10:13.350Z,99.90
2022-09-28T05:12:40.972Z,99.90
2022-09-28T05:15:08.197Z,99.90
2022-09-28T05:17:35.436Z,99.90
2022-09-28T05:20:42.203Z,99.90
2022-09-28T05:23:13.532Z,99.90
2022-09-28T05:25:42.844Z,99.90
2022-09-28T05:28:23.837Z,99.90
2022-09-28T05:31:11.024Z,99.90
2022-09-28T05:34:07.149Z,99.90
2022-09-28T05:36:35.706Z,99.90
2022-09-28T05:39:04.042Z,99.90
2022-09-28T05:41:31.365Z,99.90
2022-09-28T05:44:00.303Z,99.90
2022-09-28T05:46:27.430Z,99.90
2022-09-28T05:48:54.530Z,99.90
2022-09-28T05:51:22.256Z,99.90
2022-09-28T05:53:49.470Z,99.90
2022-09-28T05:56:17.853Z,99.90
2022-09-28T05:58:45.897Z,99.90
2022-09-28T06:01:14.777Z,99.90
2022-09-28T06:03:42.282Z,99.90
2022-09-28T06:06:09.353Z,99.90
2022-09-28T06:08:37.605Z,99.90
2022-09-28T06:11:33.824Z,99.90
2022-09-28T06:14:07.636Z,99.90
2022-09-28T06:16:35.142Z,99.90
2022-09-28T06:19:02.442Z,99.90
2022-09-28T06:21:52.180Z,99.90
2022-09-28T06:24:19.201Z,99.90
2022-09-28T06:26:46.753Z,99.90
2022-09-28T06:29:19.629Z,99.60
2022-09-28T06:31:47.317Z,99.30
2022-09-28T06:34:14.578Z,98.90
2022-09-28T06:36:41.687Z,98.70
2022-09-28T06:39:09.362Z,98.60
2022-09-28T06:41:37.258Z,98.10
2022-09-28T06:44:13.880Z,97.40
2022-09-28T06:46:50.914Z,97.00
2022-09-28T06:49:20.524Z,96.80
2022-09-28T06:52:06.111Z,96.50
2022-09-28T06:54:52.304Z,95.90
2022-09-28T06:57:36.769Z,95.50
2022-09-28T07:00:04.808Z,95.20
2022-09-28T07:02:32.332Z,94.90
2022-09-28T07:05:13.779Z,94.70
2022-09-28T07:07:59.312Z,94.40
2022-09-28T07:10:48.328Z,94.10
2022-09-28T07:13:50.542Z,93.60
2022-09-28T07:16:25.728Z,93.40
2022-09-28T07:18:54.448Z,93.00
2022-09-28T07:21:28.688Z,92.50
2022-09-28T07:24:00.095Z,92.20
2022-09-28T07:26:51.102Z,91.80
2022-09-28T07:29:32.320Z,91.50
2022-09-28T07:32:19.489Z,90.90
2022-09-28T07:35:10.755Z,90.20
2022-09-28T07:37:45.577Z,88.20
2022-09-28T07:40:31.203Z,85.90
2022-09-28T07:43:05.191Z,83.30
2022-09-28T07:45:36.767Z,80.50
2022-09-28T07:48:04.316Z,79.00
2022-09-28T07:50:40.400Z,78.20
2022-09-28T07:53:16.698Z,77.40
2022-09-28T07:56:08.975Z,75.90
2022-09-28T07:58:53.956Z,74.10
2022-09-28T08:01:49.549Z,73.10
2022-09-28T08:04:17.976Z,70.80
2022-09-28T08:06:48.343Z,68.90
2022-09-28T08:09:15.691Z,67.70
2022-09-28T08:12:01.508Z,66.20
2022-09-28T08:14:57.514Z,65.70
2022-09-28T08:17:47.394Z,64.20
2022-09-28T08:20:33.770Z,62.40
2022-09-28T08:23:06.037Z,61.00
2022-09-28T08:25:36.763Z,58.90
2022-09-28T08:28:07.322Z,59.00
2022-09-28T08:30:40.271Z,58.30
2022-09-28T08:33:14.157Z,57.00
2022-09-28T08:35:44.405Z,55.50
2022-09-28T08:38:16.979Z,54.40
2022-09-28T08:41:06.536Z,53.50
2022-09-28T08:44:05.215Z,53.00
2022-09-28T08:47:04.540Z,51.80
2022-09-28T08:49:51.865Z,51.60
2022-09-28T08:52:38.229Z,51.10
2022-09-28T08:55:31.608Z,50.00
2022-09-28T08:58:20.469Z,48.90
2022-09-28T09:00:53.173Z,47.90
2022-09-28T09:03:32.583Z,47.10
2022-09-28T09:06:29.761Z,47.20
2022-09-28T09:09:08.218Z,47.80
2022-09-28T09:12:03.390Z,47.90
2022-09-28T09:14:36.771Z,46.50
2022-09-28T09:17:25.944Z,45.90
2022-09-28T09:20:39.007Z,44.40
2022-09-28T09:23:29.608Z,43.40
2022-09-28T09:26:06.073Z,42.50
2022-09-28T09:29:11.650Z,42.50
2022-09-28T09:32:26.055Z,43.50
2022-09-28T09:35:15.914Z,44.00
2022-09-28T09:38:27.855Z,44.70
2022-09-28T09:41:29.187Z,45.20
2022-09-28T09:44:45.012Z,44.90
2022-09-28T09:47:43.033Z,45.90
2022-09-28T09:50:30.728Z,45.70
2022-09-28T09:53:13.146Z,44.50
2022-09-28T09:55:50.488Z,43.10
2022-09-28T09:59:01.358Z,42.50
2022-09-28T10:01:40.519Z,40.70
2022-09-28T10:04:39.556Z,39.80
2022-09-28T10:07:43.419Z,38.50
2022-09-28T10:10:34.731Z,37.80
2022-09-28T10:13:20.776Z,37.60
2022-09-28T10:15:50.497Z,37.10
2022-09-28T10:18:33.331Z,36.20
2022-09-28T10:21:21.636Z,36.50
2022-09-28T10:23:54.136Z,35.00
2022-09-28T10:26:25.976Z,33.80
2022-09-28T10:29:04.611Z,33.40
2022-09-28T10:31:39.446Z,33.10
2022-09-28T10:34:32.389Z,32.30
2022-09-28T10:37:10.489Z,32.10
2022-09-28T10:40:28.261Z,32.90
2022-09-28T10:43:05.116Z,33.30
2022-09-28T10:45:36.915Z,32.60
2022-09-28T10:48:14.367Z,32.50
2022-09-28T10:50:42.335Z,32.20
2022-09-28T10:53:21.863Z,31.90
2022-09-28T10:56:24.237Z,31.80
2022-09-28T10:58:58.083Z,31.40
2022-09-28T11:01:43.693Z,31.10
2022-09-28T11:04:21.372Z,30.60
2022-09-28T11:06:48.444Z,30.50
2022-09-28T11:09:41.518Z,30.10
2022-09-28T11:12:16.667Z,30.00
2022-09-28T11:14:44.549Z,30.20
2022-09-28T11:17:30.381Z,30.00
2022-09-28T11:19:59.951Z,29.90
2022-09-28T11:22:30.185Z,30.10
2022-09-28T11:25:16.739Z,30.80
2022-09-28T11:27:52.981Z,30.30
2022-09-28T11:30:20.687Z,29.90
2022-09-28T11:33:39.236Z,30.60
2022-09-28T11:36:55.654Z,32.40
2022-09-28T11:39:59.037Z,34.90
2022-09-28T11:42:48.684Z,36.70
2022-09-28T11:45:26.395Z,37.50
2022-09-28T11:48:01.920Z,38.30
2022-09-28T11:50:43.462Z,38.60
2022-09-28T11:53:22.571Z,38.60
2022-09-28T11:56:33.570Z,37.90
2022-09-28T11:59:11.428Z,36.90
2022-09-28T12:02:15.897Z,36.90
2022-09-28T12:05:04.691Z,36.60
2022-09-28T12:07:38.349Z,35.20
2022-09-28T12:10:34.143Z,35.80
2022-09-28T12:13:13.332Z,35.10
2022-09-28T12:16:27.633Z,34.10
2022-09-28T12:19:02.524Z,33.00
2022-09-28T12:21:42.573Z,32.90
2022-09-28T12:24:23.115Z,32.90
2022-09-28T12:27:02.062Z,31.90
2022-09-28T12:30:12.469Z,31.30
2022-09-28T12:32:51.418Z,31.50
2022-09-28T12:35:48.722Z,32.30
2022-09-28T12:38:54.102Z,33.30
2022-09-28T12:41:49.139Z,33.60
2022-09-28T12:44:40.880Z,35.00
2022-09-28T12:47:31.025Z,36.20
2022-09-28T12:50:39.626Z,38.10
2022-09-28T12:53:19.408Z,39.60
2022-09-28T12:56:09.202Z,40.50
2022-09-28T12:59:02.079Z,41.30
2022-09-28T13:01:41.129Z,42.10
2022-09-28T13:04:52.352Z,43.30
2022-09-28T13:07:19.278Z,44.40
2022-09-28T13:10:01.536Z,44.60
2022-09-28T13:12:47.250Z,45.80
2022-09-28T13:15:32.411Z,46.70
2022-09-28T13:18:35.353Z,47.40
2022-09-28T13:21:05.323Z,48.20
2022-09-28T13:23:46.241Z,49.40
2022-09-28T13:26:32.684Z,49.90
2022-09-28T13:29:11.954Z,50.40
2022-09-28T13:31:53.399Z,50.80
2022-09-28T13:34:33.466Z,51.60
2022-09-28T13:37:14.506Z,52.20
2022-09-28T13:39:56.422Z,52.80
2022-09-28T13:42:36.263Z,52.80
2022-09-28T13:45:22.968Z,52.90
2022-09-28T13:48:16.027Z,53.10
2022-09-28T13:51:04.368Z,53.30
2022-09-28T13:53:31.233Z,53.40
2022-09-28T13:55:58.975Z,53.00
2022-09-28T13:58:31.535Z,53.10
2022-09-28T14:01:01.551Z,53.30
2022-09-28T14:04:00.826Z,53.30
2022-09-28T14:06:30.900Z,53.50
2022-09-28T14:09:13.170Z,53.80
2022-09-28T14:11:53.497Z,53.80
2022-09-28T14:14:29.422Z,53.40
2022-09-28T14:17:21.059Z,53.40
2022-09-28T14:19:56.278Z,53.80
2022-09-28T14:22:32.507Z,52.60
2022-09-28T14:25:23.751Z,52.40
2022-09-28T14:28:06.676Z,51.80
2022-09-28T14:30:42.699Z,51.40
2022-09-28T14:33:30.296Z,51.00
2022-09-28T14:36:07.599Z,50.90
2022-09-28T14:39:08.833Z,50.70
2022-09-28T14:41:39.993Z,50.60
2022-09-28T14:44:10.220Z,51.20
2022-09-28T14:46:46.764Z,51.60
2022-09-28T14:49:20.107Z,52.20
2022-09-28T14:51:58.704Z,52.70
2022-09-28T14:54:28.547Z,53.30
2022-09-28T14:56:58.925Z,53.50
2022-09-28T14:59:35.951Z,53.70
2022-09-28T15:02:15.003Z,53.80
2022-09-28T15:04:47.088Z,54.00
2022-09-28T15:07:25.077Z,53.80
2022-09-28T15:09:54.766Z,54.10
2022-09-28T15:12:27.812Z,54.60
2022-09-28T15:15:04.172Z,55.00
2022-09-28T15:17:39.457Z,55.40
2022-09-28T15:20:24.939Z,56.10
2022-09-28T15:22:58.495Z,56.40
2022-09-28T15:25:31.715Z,56.80
2022-09-28T15:28:16.312Z,57.50
2022-09-28T15:30:43.805Z,57.90
2022-09-28T15:33:44.187Z,58.40
2022-09-28T15:36:19.564Z,58.70
2022-09-28T15:38:53.694Z,59.00
2022-09-28T15:41:24.972Z,59.90
2022-09-28T15:44:12.143Z,59.50
2022-09-28T15:46:42.423Z,59.30
2022-09-28T15:49:31.162Z,59.50
2022-09-28T15:52:02.291Z,60.00
2022-09-28T15:54:43.691Z,60.00
2022-09-28T15:57:28.571Z,60.60
2022-09-28T15:59:56.989Z,60.90
2022-09-28T16:02:25.279Z,61.30
2022-09-28T16:04:55.197Z,61.60
2022-09-28T16:07:34.416Z,61.80
2022-09-28T16:10:13.740Z,61.70
2022-09-28T16:12:42.586Z,62.00
2022-09-28T16:15:25.701Z,62.20
2022-09-28T16:17:54.945Z,62.70
2022-09-28T16:20:23.665Z,62.70
2022-09-28T16:22:52.691Z,63.00
2022-09-28T16:25:25.491Z,63.30
2022-09-28T16:27:55.168Z,63.90
2022-09-28T16:30:28.794Z,64.10
2022-09-28T16:32:56.378Z,64.60
2022-09-28T16:35:30.741Z,64.10
2022-09-28T16:38:11.948Z,64.90
2022-09-28T16:40:49.473Z,66.00
2022-09-28T16:43:37.007Z,66.80
2022-09-28T16:46:12.058Z,67.40
2022-09-28T16:48:48.909Z,67.90
2022-09-28T16:51:20.541Z,68.20
2022-09-28T16:54:06.601Z,68.60
2022-09-28T16:56:35.720Z,69.40
2022-09-28T16:59:04.431Z,70.10
2022-09-28T17:01:31.598Z,70.90
2022-09-28T17:03:58.871Z,71.50
2022-09-28T17:06:26.946Z,72.10
2022-09-28T17:08:58.729Z,72.60
2022-09-28T17:11:25.707Z,72.70
2022-09-28T17:13:56.805Z,73.00
2022-09-28T17:19:25.880Z,74.10
2022-09-28T17:21:54.318Z,74.40
2022-09-28T17:24:21.589Z,74.40
2022-09-28T17:26:50.945Z,74.70
2022-09-28T17:29:19.144Z,75.00
2022-09-28T17:31:47.220Z,75.30
2022-09-28T17:34:16.252Z,75.50
2022-09-28T17:36:44.813Z,75.70
2022-09-28T17:39:13.986Z,75.70
2022-09-28T17:41:42.282Z,75.70
2022-09-28T17:44:09.218Z,75.90
2022-09-28T17:46:45.945Z,76.20
2022-09-28T17:49:14.312Z,76.50
2022-09-28T17:51:41.425Z,76.60
2022-09-28T17:54:08.652Z,76.80
2022-09-28T17:56:36.629Z,77.00
2022-09-28T17:59:06.858Z,77.10
2022-09-28T18:01:37.848Z,77.30
2022-09-28T18:04:08.098Z,77.30
2022-09-28T18:06:35.160Z,78.20
2022-09-28T18:09:03.181Z,77.50
2022-09-28T18:11:31.666Z,77.60
2022-09-28T18:13:58.575Z,77.80
2022-09-28T18:16:27.889Z,77.90
2022-09-28T18:18:55.045Z,78.20
2022-09-28T18:21:22.055Z,78.30
2022-09-28T18:23:48.947Z,78.30
2022-09-28T18:26:16.835Z,78.30
2022-09-28T18:28:43.764Z,78.30
2022-09-28T18:31:14.214Z,78.40
2022-09-28T18:33:50.661Z,78.50
2022-09-28T18:36:17.593Z,78.40
2022-09-28T18:38:44.503Z,78.40
2022-09-28T18:41:15.784Z,78.60
2022-09-28T18:43:52.099Z,78.90
2022-09-28T18:46:19.136Z,79.10
2022-09-28T18:48:47.764Z,79.10
2022-09-28T18:51:15.296Z,79.40
2022-09-28T18:53:42.582Z,79.60
2022-09-28T18:56:12.992Z,79.70
2022-09-28T18:58:41.688Z,79.70
2022-09-28T19:01:34.748Z,79.60
2022-09-28T19:04:03.653Z,79.50
2022-09-28T19:06:31.824Z,79.60
2022-09-28T19:08:59.103Z,79.70
2022-09-28T19:11:26.970Z,80.00
2022-09-28T19:13:55.206Z,80.40
2022-09-28T19:16:25.527Z,80.70
2022-09-28T19:18:53.702Z,81.20
2022-09-28T19:21:21.266Z,81.50
2022-09-28T19:23:49.778Z,81.90
2022-09-28T19:26:23.914Z,82.30
2022-09-28T19:28:51.066Z,82.80
2022-09-28T19:31:18.421Z,82.90
2022-09-28T19:33:46.545Z,83.20
2022-09-28T19:36:19.750Z,83.50
2022-09-28T19:38:46.713Z,83.50
2022-09-28T19:41:39.610Z,83.50
2022-09-28T19:44:15.596Z,83.80
2022-09-28T19:46:42.978Z,84.00
2022-09-28T19:49:19.377Z,84.10
2022-09-28T19:54:37.593Z,84.60
2022-09-28T19:57:08.666Z,84.70
2022-09-28T19:59:39.233Z,85.00
2022-09-28T20:02:07.970Z,85.10
2022-09-28T20:04:35.214Z,85.20
2022-09-28T20:07:02.712Z,85.30
2022-09-28T20:09:29.776Z,85.50
2022-09-28T20:11:57.244Z,85.70
2022-09-28T20:14:26.415Z,85.90
2022-09-28T20:16:55.229Z,86.10
2022-09-28T20:19:23.315Z,86.20
2022-09-28T20:21:50.684Z,86.30
2022-09-28T20:24:17.627Z,86.40
2022-09-28T20:26:45.971Z,86.50
2022-09-28T20:29:13.353Z,86.50
2022-09-28T20:31:41.207Z,86.40
2022-09-28T20:34:09.266Z,86.50
2022-09-28T20:36:36.235Z,86.60
2022-09-28T20:39:03.937Z,86.80
2022-09-28T20:41:36.516Z,86.90
2022-09-28T20:44:06.126Z,87.90
2022-09-28T20:46:35.234Z,87.20
2022-09-28T20:49:02.550Z,87.30
2022-09-28T20:51:29.561Z,87.40
2022-09-28T20:53:58.949Z,87.40
2022-09-28T20:56:31.616Z,87.70
2022-09-28T20:58:58.518Z,87.70
2022-09-28T21:01:30.621Z,87.70
2022-09-28T21:03:59.950Z,87.70
2022-09-28T21:06:29.666Z,87.70
2022-09-28T21:08:57.828Z,87.80
2022-09-28T21:11:26.635Z,88.00
2022-09-28T21:13:56.086Z,88.00
2022-09-28T21:16:23.115Z,88.00
2022-09-28T21:18:50.102Z,88.10
2022-09-28T21:21:19.296Z,88.20
2022-09-28T21:23:46.856Z,88.20
2022-09-28T21:26:18.855Z,88.20
2022-09-28T21:28:46.643Z,88.30
2022-09-28T21:31:14.766Z,88.20
2022-09-28T21:33:41.807Z,88.10
2022-09-28T21:36:08.863Z,88.00
2022-09-28T21:38:35.784Z,87.90
2022-09-28T21:41:03.018Z,87.90
2022-09-28T21:43:31.803Z,88.00
2022-09-28T21:45:58.778Z,87.90
2022-09-28T21:48:27.894Z,88.00
2022-09-28T21:50:58.180Z,88.10
2022-09-28T21:53:26.478Z,88.10
2022-09-28T21:55:54.350Z,88.10
2022-09-28T21:58:24.688Z,88.00
2022-09-28T22:01:04.500Z,87.90
2022-09-28T22:03:33.007Z,87.80
2022-09-28T22:05:59.952Z,87.70
2022-09-28T22:08:27.259Z,87.70
2022-09-28T22:11:05.741Z,87.80
2022-09-28T22:13:44.595Z,87.90
2022-09-28T22:16:13.227Z,87.90
2022-09-28T22:18:41.025Z,88.00
2022-09-28T22:21:10.661Z,88.10
2022-09-28T22:23:38.504Z,88.20
2022-09-28T22:26:20.704Z,88.20
2022-09-28T22:28:52.163Z,88.00
2022-09-28T22:31:21.077Z,87.70
2022-09-28T22:33:48.619Z,87.40
2022-09-28T22:36:16.927Z,87.00
2022-09-28T22:38:44.964Z,86.70
2022-09-28T22:41:12.498Z,86.40
2022-09-28T22:43:39.429Z,86.00
2022-09-28T22:46:09.124Z,85.90
2022-09-28T22:48:36.428Z,85.80
2022-09-28T22:51:05.282Z,85.80
2022-09-28T22:53:33.227Z,85.80
2022-09-28T22:56:01.576Z,85.80
2022-09-28T22:58:28.493Z,86.10
2022-09-28T23:00:57.071Z,86.20
2022-09-28T23:03:24.040Z,86.30
2022-09-28T23:05:55.160Z,86.40
2022-09-28T23:08:23.222Z,86.60
2022-09-28T23:10:51.030Z,86.70
2022-09-28T23:13:18.515Z,87.00
2022-09-28T23:15:59.011Z,87.20
2022-09-28T23:18:28.960Z,87.60
2022-09-28T23:21:00.150Z,87.80
2022-09-28T23:23:27.900Z,87.80
2022-09-28T23:25:55.513Z,87.90
2022-09-28T23:28:24.293Z,87.80
2022-09-28T23:30:51.692Z,87.80
2022-09-28T23:33:20.048Z,87.60
2022-09-28T23:35:47.302Z,87.60
2022-09-28T23:38:18.026Z,87.50
2022-09-28T23:40:46.450Z,87.40
2022-09-28T23:43:14.200Z,87.50
2022-09-28T23:45:43.919Z,87.60
2022-09-28T23:48:11.766Z,87.70
2022-09-28T23:50:38.680Z,88.00
2022-09-28T23:53:05.699Z,88.10
2022-09-28T23:55:32.809Z,88.10
2022-09-28T23:57:59.757Z,88.20
